Homestead ARB Airport
KHST : now visible

Airfield :











YOU CAN JOIN US ON...

 
LOGIN :

Register | Disclaimer

   EN    FR    IT 

 









Legend :    VFR   Marginal VFR   IFR   Intensive IFR   Very Intensive IFR
Visi :
Ceiling :
>= 8 km
>= 3000ft
5 to 8 km
1000 to 3000 ft
1500m to 5 km
500 to 1000 ft
800 to 1500m
200 to 500 ft
< 800m
< 200 ft
Symbols :   Thunderstorms  Fog  Heavy snow  Heavy precipitations  Wind > 20 kt






- Airport Elevation : 5 ft


KHST - Homestead ARB

CURRENT METAR :
  • 182355Z AUTO 09003KT 10SM CLR 30/25 A3003 RMK AO2 SLP172 T02970245 10332 20297 55003

EXPIRED METARs :
  • 182255Z 07006KT 10SM FEW025 BKN250 30/25 A3002 RMK AO2A LTG DSNT E SLP169 T03040247
  • 182155Z 09009KT 10SM FEW025 SCT250 31/25 A3002 RMK AO2A LTG DSNT N AND SW-W SLP169 T03140247
  • 182055Z 08009KT 10SM FEW025 FEW250 32/25 A3003 RMK AO2A SLP172 T03240252 55002
  • 181955Z 12006KT 10SM FEW025 SCT250 33/24 A3003 RMK AO2A SLP172 T03250242

TAF AMD TAF KHST
Valid from the 18 at 20:00 until the 20 at 01:00 UTC


182015Z 1820/2001 14010G15KT 9999 VCTS SCT025CB SCT045 QNH3000INS
TEMPO 1820/1823 VRB10G15KT 8000 -TSRA BKN025CB
BECMG 1822/1823 VRB06KT 9999 NSW SCT025 BKN040 QNH2999INS
BECMG 1914/1915 12010G15KT 9999 VCSH SCT030 SCT045 SCT250 QNH3002INS
BECMG 1923/1924 VRB06KT 9999 NSW FEW018 BKN022 BKN250 QNH3005INS TX33/1821Z TN27/1911Z
KZMA FIR / North America



MET'MAP, your aeronautical weather chart ! - Copyright ORBIFLY December 2007 - Disclaimer

ORBIFLY MET'MAP TEAM :

Programming & Development : Alexandra Zaïnal
Original concept : Baudouin d'Aumeries
Technical & hardware support : Manuel Goepfert
Assistance : Marc-Olivier Méhu




SOURCES & CREDITS :

   NOAA       Earth
Advisory